Time;durP1;ratioP1;P1;durP2;ratioP2;P2;SDS_P1;SDS_P2;PMS_P1;PMS_P2;Temp;Humidity;BMP_temperature;BMP_pressure;BME280_temperature;BME280_humidity;BME280_pressure;Samples;Min_cycle;Max_cycle;Signal;HPM_P1;HPM_P2
2022/01/29 00:01:36;;;;;;;4.78;2.53;;;-0.30;99.90;;;;;;5095209;28;20032;-69
2022/01/29 00:04:01;;;;;;;4.63;2.50;;;-0.40;99.90;;;;;;5095066;28;20025;-69
2022/01/29 00:06:27;;;;;;;5.13;3.00;;;-0.40;99.90;;;;;;5095140;28;20024;-69
2022/01/29 00:08:55;;;;;;;5.43;2.85;;;-0.40;99.90;;;;;;5094834;28;20384;-69
2022/01/29 00:11:27;;;;;;;4.90;2.83;;;-0.50;99.90;;;;;;5095325;28;20415;-69
2022/01/29 00:13:52;;;;;;;6.32;2.95;;;-0.50;99.90;;;;;;5095356;28;20048;-69
2022/01/29 00:16:18;;;;;;;6.65;2.72;;;-0.50;99.90;;;;;;5095473;28;20129;-69
2022/01/29 00:18:44;;;;;;;5.00;2.80;;;-0.60;99.90;;;;;;5094913;28;20107;-69
2022/01/29 00:21:10;;;;;;;4.97;2.95;;;-0.60;99.90;;;;;;5094768;28;20031;-69
2022/01/29 00:23:35;;;;;;;5.60;2.83;;;-0.60;99.90;;;;;;5094619;28;20108;-69
2022/01/29 00:26:01;;;;;;;5.97;2.92;;;-0.60;99.90;;;;;;5094762;28;20048;-69
2022/01/29 00:28:28;;;;;;;6.55;3.05;;;-0.60;99.90;;;;;;5093891;28;20039;-69
2022/01/29 00:30:53;;;;;;;6.60;2.70;;;-0.60;99.90;;;;;;5094586;28;20018;-69
2022/01/29 00:33:19;;;;;;;5.07;2.70;;;-0.70;99.90;;;;;;5094807;28;20107;-69
2022/01/29 00:35:45;;;;;;;4.45;2.50;;;-0.70;99.90;;;;;;5094558;28;20056;-70
2022/01/29 00:38:10;;;;;;;6.97;2.83;;;-0.70;99.90;;;;;;5094225;28;20024;-70
2022/01/29 00:40:37;;;;;;;5.15;2.60;;;-0.70;99.90;;;;;;5094474;28;20081;-69
2022/01/29 00:43:04;;;;;;;6.43;2.70;;;-0.70;99.90;;;;;;5094379;28;20020;-69
2022/01/29 00:45:31;;;;;;;5.07;2.92;;;-0.70;99.90;;;;;;5094222;28;20063;-69
2022/01/29 00:47:56;;;;;;;5.95;2.83;;;-0.80;99.90;;;;;;5094341;28;20124;-70
2022/01/29 00:50:22;;;;;;;8.13;2.85;;;-0.80;99.90;;;;;;5093060;28;20031;-70
2022/01/29 00:52:48;;;;;;;4.20;2.50;;;-0.80;99.90;;;;;;5094124;28;20544;-69
2022/01/29 00:55:14;;;;;;;5.47;2.90;;;-0.80;99.90;;;;;;5094209;28;20020;-69
2022/01/29 00:57:40;;;;;;;6.65;2.95;;;-0.80;99.90;;;;;;5094476;28;20036;-70
2022/01/29 01:00:11;;;;;;;4.95;3.00;;;-0.90;99.90;;;;;;5092760;28;20020;-69
2022/01/29 01:02:37;;;;;;;5.50;2.80;;;-0.90;99.90;;;;;;5083099;28;20115;-69
2022/01/29 01:05:04;;;;;;;4.60;2.50;;;-0.90;99.90;;;;;;5074317;28;20052;-69
2022/01/29 01:07:30;;;;;;;5.80;3.38;;;-0.90;99.90;;;;;;5074363;28;20021;-69
2022/01/29 01:09:55;;;;;;;5.10;2.92;;;-0.90;99.90;;;;;;5073548;28;20093;-69
2022/01/29 01:12:21;;;;;;;5.28;2.90;;;-1.00;99.90;;;;;;5073759;28;20476;-69
2022/01/29 01:14:47;;;;;;;7.75;3.50;;;-1.00;99.90;;;;;;5072377;28;20028;-69
2022/01/29 01:17:13;;;;;;;5.15;2.72;;;-1.00;99.90;;;;;;5073633;28;20025;-69
2022/01/29 01:19:38;;;;;;;6.78;2.92;;;-0.90;99.90;;;;;;5073585;28;20030;-69
2022/01/29 01:22:04;;;;;;;5.60;2.80;;;-1.00;99.90;;;;;;5073522;28;20077;-69
2022/01/29 01:24:30;;;;;;;4.07;2.60;;;-1.00;99.90;;;;;;5071969;28;20545;-69
2022/01/29 01:26:56;;;;;;;4.22;2.20;;;-1.00;99.90;;;;;;5073784;28;20021;-69
2022/01/29 01:29:22;;;;;;;6.50;3.05;;;-1.00;99.90;;;;;;5073485;28;20142;-69
2022/01/29 01:31:48;;;;;;;5.97;2.90;;;-1.00;99.90;;;;;;5073144;28;20040;-69
2022/01/29 01:34:17;;;;;;;8.98;4.32;;;-1.10;99.90;;;;;;5073661;28;20035;-69
2022/01/29 01:36:48;;;;;;;6.13;2.60;;;-1.20;99.90;;;;;;5073412;28;20024;-69
2022/01/29 01:39:18;;;;;;;4.55;2.28;;;-1.30;99.90;;;;;;5072999;28;20043;-70
2022/01/29 01:41:53;;;;;;;5.32;2.92;;;-1.40;99.90;;;;;;5072020;28;20032;-70
2022/01/29 01:44:19;;;;;;;5.38;2.33;;;-1.50;99.90;;;;;;5073102;28;20029;-70
2022/01/29 01:46:45;;;;;;;3.35;2.08;;;-1.60;99.90;;;;;;5073609;28;20027;-70
2022/01/29 01:49:11;;;;;;;7.22;2.50;;;-1.60;99.90;;;;;;5073853;28;20345;-70
2022/01/29 01:51:37;;;;;;;4.72;2.40;;;-1.50;99.90;;;;;;5073264;28;20142;-70
2022/01/29 01:54:04;;;;;;;5.32;3.13;;;-1.50;99.90;;;;;;5073065;28;20047;-70
2022/01/29 01:56:30;;;;;;;6.53;3.10;;;-1.50;99.90;;;;;;5073272;28;20034;-70
2022/01/29 01:58:56;;;;;;;7.00;3.30;;;-1.50;99.90;;;;;;5096392;22;20038;-66
2022/01/29 02:01:22;;;;;;;6.13;2.70;;;-1.60;99.90;;;;;;5073475;28;20040;-68
2022/01/29 02:03:48;;;;;;;7.10;3.28;;;-1.60;99.90;;;;;;5073142;28;20096;-68
2022/01/29 02:06:14;;;;;;;9.63;3.35;;;-1.60;99.90;;;;;;5073692;28;20017;-68
2022/01/29 02:08:40;;;;;;;6.90;3.80;;;-1.60;99.90;;;;;;5073209;28;20028;-68
2022/01/29 02:11:06;;;;;;;8.38;3.42;;;-1.60;99.90;;;;;;5093511;28;20016;-65
2022/01/29 02:13:33;;;;;;;5.90;3.30;;;-1.60;99.90;;;;;;5093555;28;20020;-68
2022/01/29 02:16:01;;;;;;;7.20;3.55;;;-1.60;99.90;;;;;;5093245;28;20025;-68
2022/01/29 02:18:26;;;;;;;6.57;3.70;;;-1.50;99.90;;;;;;5093471;28;20422;-67
2022/01/29 02:20:52;;;;;;;5.35;3.00;;;-1.60;99.90;;;;;;5093116;28;20103;-67
2022/01/29 02:23:18;;;;;;;6.68;3.17;;;-1.60;99.90;;;;;;5093186;28;20020;-68
2022/01/29 02:25:46;;;;;;;6.43;3.33;;;-1.60;99.90;;;;;;5093057;28;20024;-67
2022/01/29 02:28:16;;;;;;;7.80;3.47;;;-1.60;99.90;;;;;;5093109;28;20024;-68
2022/01/29 02:30:47;;;;;;;4.63;2.53;;;-1.70;99.90;;;;;;5092959;28;20020;-68
2022/01/29 02:33:15;;;;;;;6.30;3.53;;;-1.70;99.90;;;;;;5093612;28;20016;-68
2022/01/29 02:35:43;;;;;;;7.43;3.67;;;-1.70;99.90;;;;;;5075014;28;20039;-68
2022/01/29 02:38:10;;;;;;;6.43;3.75;;;-1.70;99.90;;;;;;5092795;28;20028;-68
2022/01/29 02:40:43;;;;;;;6.63;3.35;;;-1.70;99.90;;;;;;5092918;28;20491;-68
2022/01/29 02:43:15;;;;;;;7.40;4.32;;;-1.70;99.90;;;;;;5093246;28;20439;-68
2022/01/29 02:45:42;;;;;;;6.65;3.53;;;-1.70;99.90;;;;;;5093166;28;20111;-68
2022/01/29 02:48:08;;;;;;;6.85;2.92;;;-1.70;99.90;;;;;;5093209;28;20020;-68
2022/01/29 02:50:34;;;;;;;5.95;3.00;;;-1.70;99.90;;;;;;5092913;28;20387;-67
2022/01/29 02:52:59;;;;;;;4.95;2.70;;;-1.70;99.90;;;;;;5095670;28;20020;-68
2022/01/29 02:55:25;;;;;;;7.07;2.88;;;-1.80;99.90;;;;;;5096571;28;20475;-68
2022/01/29 02:57:51;;;;;;;6.93;3.50;;;-1.80;99.90;;;;;;5096620;28;20028;-68
2022/01/29 03:00:16;;;;;;;6.90;3.30;;;-1.80;99.90;;;;;;5096120;28;20078;-68
2022/01/29 03:02:42;;;;;;;9.23;4.88;;;-1.90;99.90;;;;;;5097226;28;20055;-67
2022/01/29 03:05:08;;;;;;;12.15;6.05;;;-1.90;99.90;;;;;;5096982;28;20101;-67
2022/01/29 03:07:34;;;;;;;16.00;5.53;;;-2.00;99.90;;;;;;5096745;28;20028;-67
2022/01/29 03:10:00;;;;;;;15.63;6.63;;;-2.00;99.90;;;;;;5095974;28;20127;-68
2022/01/29 03:12:25;;;;;;;11.95;5.55;;;-1.90;99.90;;;;;;5096221;28;20361;-67
2022/01/29 03:14:51;;;;;;;10.48;5.28;;;-1.90;99.90;;;;;;5096413;28;20376;-67
2022/01/29 03:17:17;;;;;;;10.10;4.53;;;-1.90;99.90;;;;;;5096382;28;20028;-68
2022/01/29 03:19:42;;;;;;;8.50;3.70;;;-1.90;99.90;;;;;;5096014;28;20081;-67
2022/01/29 03:22:08;;;;;;;5.45;3.30;;;-1.90;99.90;;;;;;5096290;28;20020;-68
2022/01/29 03:24:34;;;;;;;6.47;3.30;;;-2.00;99.90;;;;;;5095769;28;20099;-68
2022/01/29 03:27:00;;;;;;;5.13;2.97;;;-2.00;99.90;;;;;;5096233;28;20344;-68
2022/01/29 03:29:25;;;;;;;5.20;3.17;;;-2.10;99.90;;;;;;5095914;28;20020;-68
2022/01/29 03:31:51;;;;;;;5.93;3.13;;;-2.20;99.90;;;;;;5096425;28;20047;-68
2022/01/29 03:34:16;;;;;;;6.72;3.45;;;-2.20;99.90;;;;;;5096091;28;20028;-68
2022/01/29 03:36:42;;;;;;;5.78;3.35;;;-2.30;99.90;;;;;;5095730;28;20035;-68
2022/01/29 03:39:08;;;;;;;7.25;3.90;;;-2.30;99.90;;;;;;5095533;28;20020;-68
2022/01/29 03:41:34;;;;;;;8.25;4.47;;;-2.20;99.90;;;;;;5095634;28;20020;-68
2022/01/29 03:44:04;;;;;;;6.15;3.58;;;-2.20;99.90;;;;;;5095836;28;20376;-68
2022/01/29 03:46:30;;;;;;;5.15;2.50;;;-2.20;99.90;;;;;;5095905;28;20020;-68
2022/01/29 03:48:56;;;;;;;5.97;2.95;;;-2.10;99.90;;;;;;5095728;28;20024;-68
2022/01/29 03:51:21;;;;;;;4.65;2.50;;;-2.10;99.90;;;;;;5095486;28;20024;-68
2022/01/29 03:53:47;;;;;;;5.60;2.90;;;-2.00;99.90;;;;;;5095183;28;20032;-68
2022/01/29 03:56:13;;;;;;;5.93;2.92;;;-2.00;99.90;;;;;;5077234;28;20027;-68
2022/01/29 03:58:39;;;;;;;5.30;3.00;;;-2.00;99.90;;;;;;5095270;28;20028;-68
2022/01/29 04:01:05;;;;;;;7.32;2.80;;;-2.00;99.90;;;;;;5095081;28;20081;-68
2022/01/29 04:03:32;;;;;;;6.65;3.70;;;-2.00;99.90;;;;;;5095230;28;20024;-68
2022/01/29 04:05:58;;;;;;;11.43;4.72;;;-1.90;99.90;;;;;;5095177;28;20023;-68
2022/01/29 04:08:25;;;;;;;7.20;3.42;;;-1.90;99.90;;;;;;5094899;28;20028;-68
2022/01/29 04:10:51;;;;;;;7.70;3.78;;;-1.90;99.90;;;;;;5095285;28;20099;-68
2022/01/29 04:13:21;;;;;;;6.07;3.25;;;-2.00;99.90;;;;;;5095651;28;20490;-68
2022/01/29 04:15:47;;;;;;;6.53;3.45;;;-2.00;99.90;;;;;;5094979;28;20047;-68
2022/01/29 04:18:13;;;;;;;6.53;3.35;;;-2.10;99.90;;;;;;5095495;28;20062;-68
2022/01/29 04:20:38;;;;;;;4.78;2.97;;;-2.10;99.90;;;;;;5094850;28;20051;-68
2022/01/29 04:23:08;;;;;;;5.82;3.97;;;-2.10;99.90;;;;;;5076699;28;20020;-68
2022/01/29 04:25:33;;;;;;;9.32;3.75;;;-2.00;99.90;;;;;;5094527;28;20428;-68
2022/01/29 04:28:00;;;;;;;6.43;3.20;;;-2.00;99.90;;;;;;5094823;28;20099;-68
2022/01/29 04:30:31;;;;;;;6.35;3.35;;;-2.00;99.90;;;;;;5094529;28;20020;-68
2022/01/29 04:33:14;;;;;;;4.53;3.13;;;-2.00;99.90;;;;;;5094744;28;20062;-68
2022/01/29 04:35:39;;;;;;;6.25;3.28;;;-2.00;99.90;;;;;;5095229;28;20028;-68
2022/01/29 04:38:05;;;;;;;6.68;2.90;;;-2.00;99.90;;;;;;5094905;28;20051;-68
2022/01/29 04:40:31;;;;;;;5.57;2.63;;;-2.00;99.90;;;;;;5094252;28;20084;-68
2022/01/29 04:42:57;;;;;;;5.07;2.67;;;-2.00;99.90;;;;;;5094812;28;20077;-68
2022/01/29 04:45:22;;;;;;;5.10;2.60;;;-2.00;99.90;;;;;;5076292;28;20084;-68
2022/01/29 04:47:48;;;;;;;4.88;2.55;;;-2.00;99.90;;;;;;5094710;28;20024;-68
2022/01/29 04:50:14;;;;;;;4.30;2.80;;;-2.00;99.90;;;;;;5094409;28;20056;-68
2022/01/29 04:52:40;;;;;;;4.63;2.80;;;-2.10;99.90;;;;;;5094925;28;20016;-68
2022/01/29 04:55:06;;;;;;;6.60;2.83;;;-2.00;99.90;;;;;;5094019;28;20081;-68
2022/01/29 04:57:32;;;;;;;4.45;2.70;;;-2.10;99.90;;;;;;5094132;28;20111;-68
2022/01/29 04:59:59;;;;;;;5.68;2.83;;;-2.10;99.90;;;;;;5075668;28;20063;-68
2022/01/29 05:02:24;;;;;;;4.43;2.50;;;-2.10;99.90;;;;;;5094151;28;20028;-68
2022/01/29 05:04:50;;;;;;;6.20;2.58;;;-2.10;99.90;;;;;;5094290;28;20043;-68
2022/01/29 05:07:16;;;;;;;5.22;2.35;;;-2.10;99.90;;;;;;5094060;28;20030;-68
2022/01/29 05:09:42;;;;;;;5.40;2.70;;;-2.10;99.90;;;;;;5093763;28;20028;-68
2022/01/29 05:12:08;;;;;;;4.75;2.67;;;-2.10;99.90;;;;;;5094296;28;20016;-68
2022/01/29 05:14:45;;;;;;;4.93;2.60;;;-2.20;99.90;;;;;;5093507;28;20081;-68
2022/01/29 05:27:51;;;;;;;7.00;3.20;;;-2.10;99.90;;;;;;5093786;28;20384;-68
2022/01/29 05:30:17;;;;;;;6.85;3.05;;;-2.10;99.90;;;;;;5093549;28;20020;-68
2022/01/29 05:32:43;;;;;;;8.77;2.50;;;-2.10;99.90;;;;;;5093642;28;20024;-68
2022/01/29 05:35:09;;;;;;;6.15;3.22;;;-2.10;99.90;;;;;;5093619;28;20030;-68
2022/01/29 05:37:34;;;;;;;8.40;3.72;;;-2.10;99.90;;;;;;5093573;28;20030;-68
2022/01/29 05:40:00;;;;;;;6.60;3.47;;;-2.10;99.90;;;;;;5093304;28;20386;-68
2022/01/29 05:42:26;;;;;;;6.32;3.35;;;-2.10;99.90;;;;;;5093609;28;20081;-68
2022/01/29 05:44:52;;;;;;;6.75;3.05;;;-2.20;99.90;;;;;;5093532;28;20402;-68
2022/01/29 05:47:17;;;;;;;4.88;2.10;;;-2.20;99.90;;;;;;5093791;28;20020;-68
2022/01/29 05:49:43;;;;;;;3.67;1.90;;;-2.20;99.90;;;;;;5093640;28;20028;-68
2022/01/29 05:52:08;;;;;;;6.70;2.33;;;-2.20;99.90;;;;;;5075380;28;20031;-68
2022/01/29 05:54:34;;;;;;;4.20;2.20;;;-2.20;99.90;;;;;;5093276;28;20035;-68
2022/01/29 05:57:00;;;;;;;4.28;2.30;;;-2.30;99.90;;;;;;5093742;28;20024;-68
2022/01/29 05:59:25;;;;;;;4.78;2.30;;;-2.30;99.90;;;;;;5093115;28;20127;-68
2022/01/29 06:01:51;;;;;;;5.80;2.40;;;-2.30;99.90;;;;;;5093395;28;20095;-68
2022/01/29 06:04:17;;;;;;;5.00;2.30;;;-2.20;99.90;;;;;;5093304;28;20472;-68
2022/01/29 06:06:42;;;;;;;5.72;2.80;;;-2.20;99.90;;;;;;5093341;28;20024;-68
2022/01/29 06:09:08;;;;;;;4.47;2.53;;;-2.20;99.90;;;;;;5093051;28;20357;-68
2022/01/29 06:11:34;;;;;;;3.92;2.40;;;-2.20;99.90;;;;;;5093307;28;20055;-68
2022/01/29 06:14:00;;;;;;;3.13;2.10;;;-2.20;99.90;;;;;;5093252;28;20032;-68
2022/01/29 06:16:26;;;;;;;4.20;2.30;;;-2.20;99.90;;;;;;5093576;28;20031;-68
2022/01/29 06:18:52;;;;;;;4.10;1.95;;;-2.20;99.90;;;;;;5093175;28;20022;-68
2022/01/29 06:21:17;;;;;;;3.75;2.00;;;-2.20;99.90;;;;;;5093494;28;20024;-68
2022/01/29 06:23:44;;;;;;;6.45;2.42;;;-2.10;99.90;;;;;;5092866;28;20016;-68
2022/01/29 06:26:11;;;;;;;5.85;2.70;;;-2.20;99.90;;;;;;5093913;28;20017;-68
2022/01/29 06:28:39;;;;;;;5.47;2.85;;;-2.10;99.90;;;;;;5097090;28;20016;-68
2022/01/29 06:31:05;;;;;;;7.32;2.88;;;-2.10;99.90;;;;;;5078771;28;20055;-68
2022/01/29 06:33:31;;;;;;;4.03;2.40;;;-2.10;99.90;;;;;;5097277;28;20482;-68
2022/01/29 06:35:57;;;;;;;6.05;2.83;;;-2.10;99.90;;;;;;5096957;28;20024;-68
2022/01/29 06:38:24;;;;;;;8.48;3.42;;;-2.10;99.90;;;;;;5097168;28;20490;-68
2022/01/29 06:40:51;;;;;;;4.35;2.67;;;-2.10;99.90;;;;;;5096553;28;20490;-67
2022/01/29 06:43:16;;;;;;;5.05;2.53;;;-2.10;99.90;;;;;;5096774;28;20532;-67
2022/01/29 06:45:47;;;;;;;4.57;2.53;;;-2.10;99.90;;;;;;5078465;28;20024;-68
2022/01/29 06:48:15;;;;;;;5.57;2.63;;;-2.10;99.90;;;;;;5096729;28;20016;-68
2022/01/29 06:50:41;;;;;;;5.97;2.47;;;-2.10;99.90;;;;;;5096629;28;20479;-68
2022/01/29 06:53:07;;;;;;;8.40;2.85;;;-2.10;99.90;;;;;;5096866;28;20077;-68
2022/01/29 06:55:33;;;;;;;15.90;5.32;;;-2.10;99.90;;;;;;5096310;28;20094;-67
2022/01/29 06:57:59;;;;;;;11.85;4.60;;;-2.10;99.90;;;;;;5097057;28;20042;-68
2022/01/29 07:00:25;;;;;;;8.10;3.70;;;-2.10;99.90;;;;;;5096131;28;20406;-68
2022/01/29 07:02:51;;;;;;;5.55;2.78;;;-2.10;99.90;;;;;;5096380;28;20047;-68
2022/01/29 07:05:16;;;;;;;6.32;2.60;;;-2.10;99.90;;;;;;5096571;28;20107;-68
2022/01/29 07:07:42;;;;;;;5.15;2.72;;;-2.10;99.90;;;;;;5096263;28;20027;-68
2022/01/29 07:10:09;;;;;;;6.38;2.78;;;-2.10;99.90;;;;;;5096021;28;20012;-68
2022/01/29 07:12:39;;;;;;;10.65;5.15;;;-2.10;99.90;;;;;;5096822;28;20353;-68
2022/01/29 07:15:07;;;;;;;10.80;5.07;;;-2.10;99.90;;;;;;5096775;28;20020;-67
2022/01/29 07:17:33;;;;;;;13.27;4.97;;;-2.10;99.90;;;;;;5096689;28;20254;-68
2022/01/29 07:19:59;;;;;;;6.93;3.72;;;-2.00;99.90;;;;;;5096016;28;20024;-68
2022/01/29 07:22:24;;;;;;;8.13;4.10;;;-2.00;99.90;;;;;;5096012;28;20495;-68
2022/01/29 07:24:50;;;;;;;8.82;4.15;;;-2.00;99.90;;;;;;5095912;28;20035;-68
2022/01/29 07:27:16;;;;;;;8.40;4.70;;;-2.00;99.90;;;;;;5095982;28;20025;-68
2022/01/29 07:29:42;;;;;;;8.70;4.15;;;-2.00;99.90;;;;;;5095710;28;20079;-68
2022/01/29 07:32:08;;;;;;;9.35;4.00;;;-2.00;99.90;;;;;;5096199;28;20046;-68
2022/01/29 07:34:34;;;;;;;6.22;3.72;;;-2.10;99.90;;;;;;5095823;28;20439;-68
2022/01/29 07:37:00;;;;;;;6.82;3.40;;;-2.10;99.90;;;;;;5096091;28;20099;-68
2022/01/29 07:39:26;;;;;;;15.02;7.05;;;-2.00;99.90;;;;;;5095392;28;20425;-67
2022/01/29 07:41:53;;;;;;;17.15;9.57;;;-2.00;99.90;;;;;;5095922;28;20376;-68
2022/01/29 07:44:19;;;;;;;18.08;9.52;;;-2.00;99.90;;;;;;5095583;28;20024;-68
2022/01/29 07:46:45;;;;;;;17.27;9.00;;;-1.90;99.90;;;;;;5095638;28;20096;-68
2022/01/29 07:49:11;;;;;;;17.02;8.38;;;-1.90;99.90;;;;;;5095732;28;20410;-68
2022/01/29 07:51:38;;;;;;;16.27;7.82;;;-1.80;99.90;;;;;;5096061;28;20020;-68
2022/01/29 07:54:04;;;;;;;11.88;6.82;;;-1.70;99.90;;;;;;5095349;28;20073;-68
2022/01/29 07:56:30;;;;;;;11.18;6.57;;;-1.60;99.90;;;;;;5095817;28;20581;-67
2022/01/29 07:58:56;;;;;;;7.78;4.15;;;-1.50;99.90;;;;;;5095170;28;20107;-67
2022/01/29 08:01:22;;;;;;;8.82;4.03;;;-1.40;99.90;;;;;;5117878;22;20172;-72
2022/01/29 08:03:50;;;;;;;9.70;4.53;;;-1.40;99.90;;;;;;5115925;28;20089;-72
2022/01/29 08:06:17;;;;;;;7.35;4.43;;;-1.40;99.90;;;;;;5115693;28;20525;-72
2022/01/29 08:08:43;;;;;;;7.07;4.05;;;-1.40;99.90;;;;;;5115615;28;20034;-71
2022/01/29 08:11:10;;;;;;;9.82;4.50;;;-1.40;99.90;;;;;;5115379;28;20110;-71
2022/01/29 08:13:36;;;;;;;7.00;3.95;;;-1.40;99.90;;;;;;5115584;28;20024;-71
2022/01/29 08:16:02;;;;;;;7.47;4.15;;;-1.40;99.90;;;;;;5116011;28;20523;-71
2022/01/29 08:18:28;;;;;;;8.88;3.70;;;-1.30;99.90;;;;;;5115728;28;20024;-72
2022/01/29 08:20:54;;;;;;;9.95;4.93;;;-1.20;99.90;;;;;;5115449;28;20027;-71
2022/01/29 08:23:19;;;;;;;9.10;4.57;;;-1.20;99.90;;;;;;5115495;28;20024;-71
2022/01/29 08:25:45;;;;;;;14.20;7.13;;;-1.10;99.90;;;;;;5096834;28;20111;-71
2022/01/29 08:28:11;;;;;;;9.98;5.28;;;-1.00;99.90;;;;;;5097431;28;20528;-72
2022/01/29 08:30:37;;;;;;;10.10;4.70;;;-0.90;99.90;;;;;;5115488;28;20102;-72
2022/01/29 08:33:06;;;;;;;13.40;5.45;;;-0.70;99.90;;;;;;5097639;28;20087;-72
2022/01/29 08:35:31;;;;;;;12.35;5.72;;;-0.60;99.90;;;;;;5116505;28;20427;-72
2022/01/29 08:37:57;;;;;;;10.23;4.85;;;-0.50;99.90;;;;;;5116597;28;20102;-70
2022/01/29 08:40:23;;;;;;;10.07;5.47;;;-0.50;99.90;;;;;;5116440;28;20023;-70
2022/01/29 08:42:49;;;;;;;6.88;3.95;;;-0.50;99.90;;;;;;5097987;28;20440;-70
2022/01/29 08:45:15;;;;;;;6.70;4.20;;;-0.50;99.90;;;;;;5115520;28;20110;-70
2022/01/29 08:47:42;;;;;;;7.45;3.83;;;-0.40;99.90;;;;;;5115041;28;20106;-69
2022/01/29 08:50:09;;;;;;;8.15;3.95;;;-0.40;99.90;;;;;;5114463;28;20028;-70
2022/01/29 08:52:36;;;;;;;8.77;4.18;;;-0.30;99.90;;;;;;5114904;28;20028;-70
2022/01/29 08:55:02;;;;;;;8.40;4.00;;;-0.20;99.90;;;;;;5114559;28;20027;-70
2022/01/29 08:57:27;;;;;;;6.07;3.63;;;-0.10;99.90;;;;;;5115024;28;20024;-70
2022/01/29 08:59:53;;;;;;;7.20;3.97;;;-0.10;99.90;;;;;;5114536;28;20122;-70
2022/01/29 09:02:19;;;;;;;9.55;4.38;;;0.00;99.90;;;;;;5114928;28;20024;-70
2022/01/29 09:04:44;;;;;;;7.63;3.80;;;0.10;99.90;;;;;;5114668;28;20068;-69
2022/01/29 09:07:10;;;;;;;11.90;4.68;;;0.00;99.90;;;;;;5114557;28;20026;-69
2022/01/29 09:09:36;;;;;;;6.47;3.75;;;0.00;99.90;;;;;;5114209;28;20020;-70
2022/01/29 09:12:02;;;;;;;7.38;4.30;;;0.10;99.90;;;;;;5114707;28;20068;-69
2022/01/29 09:14:28;;;;;;;9.77;4.68;;;0.10;99.90;;;;;;5096178;28;20030;-70
2022/01/29 09:16:54;;;;;;;9.70;4.57;;;0.20;99.90;;;;;;5114305;28;20032;-70
2022/01/29 09:19:20;;;;;;;8.27;4.05;;;0.20;99.90;;;;;;5114205;28;20035;-70
2022/01/29 09:21:46;;;;;;;9.48;4.85;;;0.30;99.90;;;;;;5114274;28;20030;-70
2022/01/29 09:24:12;;;;;;;31.40;13.02;;;0.40;99.90;;;;;;5113891;28;20036;-70
2022/01/29 09:26:37;;;;;;;30.38;14.73;;;0.40;99.90;;;;;;5114325;28;20027;-70
2022/01/29 09:29:04;;;;;;;17.75;9.98;;;0.40;99.90;;;;;;5114591;28;20352;-70
2022/01/29 09:31:30;;;;;;;18.02;8.48;;;0.50;99.90;;;;;;5114131;28;20023;-70
2022/01/29 09:33:57;;;;;;;9.95;5.35;;;0.40;99.90;;;;;;5114307;28;20034;-70
2022/01/29 09:36:23;;;;;;;9.95;5.10;;;0.40;99.90;;;;;;5114101;28;20387;-70
2022/01/29 09:38:49;;;;;;;9.95;4.97;;;0.40;99.90;;;;;;5114097;28;20360;-70
2022/01/29 09:41:18;;;;;;;11.82;5.10;;;0.30;99.90;;;;;;5113729;28;20098;-70
2022/01/29 09:43:45;;;;;;;13.40;7.20;;;0.20;99.90;;;;;;5114227;28;20109;-70
2022/01/29 09:46:12;;;;;;;22.25;11.05;;;0.10;99.90;;;;;;5114128;28;20020;-69
2022/01/29 09:48:38;;;;;;;25.88;11.93;;;0.10;99.90;;;;;;5114175;28;20030;-69
2022/01/29 09:51:05;;;;;;;18.80;10.02;;;0.10;99.90;;;;;;5114694;28;20024;-69
2022/01/29 09:53:31;;;;;;;17.40;8.02;;;0.00;99.90;;;;;;5113974;28;20451;-69
2022/01/29 09:55:56;;;;;;;15.25;8.10;;;0.20;99.90;;;;;;5095417;28;20115;-69
2022/01/29 09:58:22;;;;;;;26.02;11.75;;;0.30;99.90;;;;;;5114402;28;20023;-69
2022/01/29 10:00:48;;;;;;;21.92;10.70;;;0.30;99.90;;;;;;5114900;28;20039;-69
2022/01/29 10:03:14;;;;;;;21.95;10.52;;;0.30;99.90;;;;;;5118326;28;20035;-70
2022/01/29 10:05:43;;;;;;;21.30;11.43;;;0.40;99.90;;;;;;5117899;28;20032;-69
2022/01/29 10:08:09;;;;;;;18.35;10.18;;;0.50;99.90;;;;;;5117977;28;20103;-69
2022/01/29 10:10:40;;;;;;;19.20;9.05;;;0.60;99.90;;;;;;5117641;28;20063;-69
2022/01/29 10:13:26;;;;;;;14.30;7.82;;;0.60;99.90;;;;;;5118225;28;20028;-69
2022/01/29 10:16:10;;;;;;;14.43;7.82;;;0.70;99.90;;;;;;5118379;28;20103;-70
2022/01/29 10:18:41;;;;;;;15.70;8.35;;;0.70;99.90;;;;;;5118174;28;20019;-69
2022/01/29 10:21:21;;;;;;;18.58;8.93;;;0.80;99.90;;;;;;5117707;28;20386;-69
2022/01/29 10:23:47;;;;;;;17.70;7.30;;;0.80;99.90;;;;;;5117741;28;20038;-71
2022/01/29 10:26:27;;;;;;;20.40;8.45;;;0.80;99.90;;;;;;5116016;28;20035;-71
2022/01/29 10:28:54;;;;;;;12.77;6.50;;;0.80;99.90;;;;;;5115726;28;20095;-71
2022/01/29 10:31:20;;;;;;;12.45;7.18;;;0.90;99.90;;;;;;5096763;28;20020;-71
2022/01/29 10:33:46;;;;;;;14.90;7.47;;;0.90;99.90;;;;;;5097106;28;20387;-71
2022/01/29 10:36:17;;;;;;;13.82;6.88;;;1.10;99.90;;;;;;5097051;28;20024;-71
2022/01/29 10:38:42;;;;;;;;;;;1.30;99.90;;;;;;5097774;28;20031;-71
2022/01/29 10:41:30;;;;;;;10.65;5.90;;;1.50;99.90;;;;;;5096699;28;20283;-71
2022/01/29 10:46:52;;;;;;;10.63;5.93;;;1.80;99.90;;;;;;5097466;28;20020;-71
2022/01/29 10:49:23;;;;;;;15.60;8.00;;;1.90;99.90;;;;;;5096995;28;20093;-71
2022/01/29 10:52:14;;;;;;;12.57;7.28;;;1.90;99.90;;;;;;5097346;28;20052;-71
2022/01/29 10:54:46;;;;;;;13.00;6.75;;;2.00;99.90;;;;;;5097035;28;20020;-71
2022/01/29 10:57:15;;;;;;;12.73;7.05;;;1.90;99.90;;;;;;5096649;28;20031;-71
2022/01/29 10:59:50;;;;;;;14.52;7.82;;;1.90;99.90;;;;;;5078073;28;20032;-71
2022/01/29 11:02:16;;;;;;;16.17;9.77;;;1.90;99.90;;;;;;5096511;28;20024;-71
2022/01/29 11:04:43;;;;;;;16.65;9.20;;;1.90;99.90;;;;;;5096467;28;20464;-71
2022/01/29 11:07:25;;;;;;;16.83;8.98;;;1.80;99.90;;;;;;5096459;28;20069;-71
2022/01/29 11:09:51;;;;;;;14.13;8.05;;;1.70;99.90;;;;;;5096410;28;20024;-70
2022/01/29 11:12:22;;;;;;;12.73;7.40;;;1.60;99.90;;;;;;5095618;28;20491;-70
2022/01/29 11:14:50;;;;;;;11.68;6.68;;;1.70;99.90;;;;;;5096911;28;20019;-71
2022/01/29 11:17:18;;;;;;;15.07;7.18;;;1.70;99.90;;;;;;5096533;28;20023;-71
2022/01/29 11:19:45;;;;;;;13.35;6.80;;;1.70;99.90;;;;;;5096151;28;20123;-71
2022/01/29 11:22:11;;;;;;;13.63;6.93;;;1.70;99.90;;;;;;5096180;28;20051;-71
2022/01/29 11:24:41;;;;;;;12.30;6.07;;;1.70;99.90;;;;;;5095914;28;20031;-71
2022/01/29 11:27:41;;;;;;;11.13;5.88;;;1.70;99.90;;;;;;5096087;28;20081;-71
2022/01/29 11:30:09;;;;;;;10.45;5.88;;;1.80;99.90;;;;;;5043813;28;20058;-71
2022/01/29 11:32:42;;;;;;;13.50;6.70;;;1.80;99.90;;;;;;5095924;28;20023;-71
2022/01/29 11:35:12;;;;;;;11.25;7.53;;;1.90;99.90;;;;;;5077778;28;20024;-70
2022/01/29 11:37:57;;;;;;;10.82;6.93;;;2.00;99.90;;;;;;5095990;28;20451;-70
2022/01/29 11:40:44;;;;;;;13.65;7.00;;;2.10;99.90;;;;;;5096142;28;20543;-71
2022/01/29 11:43:22;;;;;;;18.48;6.93;;;2.10;99.90;;;;;;5095872;28;20383;-70
2022/01/29 11:45:58;;;;;;;15.18;7.93;;;2.20;99.90;;;;;;5095977;28;20024;-71
2022/01/29 11:48:28;;;;;;;12.88;7.75;;;2.20;99.90;;;;;;5096147;28;20045;-70
2022/01/29 11:50:58;;;;;;;12.38;7.15;;;2.20;99.90;;;;;;5095836;28;20024;-70
2022/01/29 11:53:45;;;;;;;15.15;6.38;;;2.30;99.90;;;;;;5095594;28;20024;-70
2022/01/29 11:56:37;;;;;;;12.20;6.47;;;2.40;99.90;;;;;;5095213;28;20024;-70
2022/01/29 11:59:17;;;;;;;12.93;6.85;;;2.50;99.90;;;;;;5097961;28;20128;-70
2022/01/29 12:01:44;;;;;;;11.75;6.20;;;2.70;99.90;;;;;;5116251;28;20036;-70
2022/01/29 12:04:10;;;;;;;14.50;7.30;;;2.80;99.90;;;;;;5116056;28;20055;-70
2022/01/29 12:06:42;;;;;;;12.93;5.57;;;2.80;99.90;;;;;;5115712;28;20023;-70
2022/01/29 12:09:19;;;;;;;8.48;4.20;;;2.80;99.90;;;;;;5115921;28;20023;-70
2022/01/29 12:12:14;;;;;;;8.90;5.05;;;2.80;99.90;;;;;;5115370;28;20030;-70
2022/01/29 12:14:40;;;;;;;9.13;4.28;;;2.80;99.90;;;;;;5115492;28;20023;-70
2022/01/29 12:17:07;;;;;;;7.10;3.70;;;2.90;99.90;;;;;;5115741;28;20494;-70
2022/01/29 12:19:37;;;;;;;6.35;4.00;;;3.00;99.90;;;;;;5115400;28;20020;-70
2022/01/29 12:22:11;;;;;;;8.70;4.45;;;3.10;99.90;;;;;;5097121;28;20509;-70
2022/01/29 12:24:39;;;;;;;8.43;3.90;;;3.20;99.90;;;;;;5114301;28;20030;-70
2022/01/29 12:27:05;;;;;;;6.25;3.95;;;3.30;99.90;;;;;;5115332;28;20356;-70
2022/01/29 12:29:31;;;;;;;8.88;5.10;;;3.40;99.90;;;;;;5096904;28;20020;-70
2022/01/29 12:31:57;;;;;;;10.00;5.38;;;3.40;99.90;;;;;;5115157;28;20020;-70
2022/01/29 12:34:25;;;;;;;8.23;5.15;;;3.30;99.90;;;;;;5115402;28;20126;-70
2022/01/29 12:36:51;;;;;;;7.00;4.25;;;3.30;99.90;;;;;;5115130;28;20023;-70
2022/01/29 12:39:24;;;;;;;8.55;4.00;;;3.30;99.90;;;;;;5115244;28;20030;-70
2022/01/29 12:42:42;;;;;;;6.55;3.80;;;3.30;99.90;;;;;;5096524;28;20024;-69
2022/01/29 12:44:51;;;;;;;7.22;3.40;;;3.20;99.90;;;;;;5111603;28;20046;-69
2022/01/29 12:47:35;;;;;;;10.65;4.50;;;3.30;99.90;;;;;;5114806;28;20012;-69
2022/01/29 12:50:01;;;;;;;12.95;4.80;;;3.30;99.90;;;;;;5114709;28;20020;-69
2022/01/29 12:52:29;;;;;;;7.93;4.78;;;3.20;99.90;;;;;;5114767;28;20122;-69
2022/01/29 12:55:00;;;;;;;14.70;6.28;;;3.20;99.90;;;;;;5114463;28;20039;-69
2022/01/29 12:57:39;;;;;;;13.50;9.60;;;3.20;99.90;;;;;;5115326;28;20034;-69
2022/01/29 13:00:12;;;;;;;13.48;8.43;;;3.20;99.90;;;;;;5096155;28;20116;-69
2022/01/29 13:02:38;;;;;;;13.18;8.25;;;3.20;99.90;;;;;;5096306;28;20051;-69
2022/01/29 13:05:04;;;;;;;13.52;7.70;;;3.10;99.90;;;;;;5114467;28;20107;-69